Time;durP1;ratioP1;P1;durP2;ratioP2;P2;SDS_P1;SDS_P2;PMS_P1;PMS_P2;Temp;Humidity;BMP_temperature;BMP_pressure;BME280_temperature;BME280_humidity;BME280_pressure;Samples;Min_cycle;Max_cycle;Signal;HPM_P1;HPM_P2
2022/12/27 00:01:40;;;;;;;5.03;1.50;;;12.00;69.40;;;;;;5038693;28;20499;-80
2022/12/27 00:04:26;;;;;;;3.80;1.40;;;12.00;69.30;;;;;;5029040;28;20094;-81
2022/12/27 00:07:11;;;;;;;6.93;1.30;;;12.00;69.30;;;;;;5029988;28;20044;-82
2022/12/27 00:09:58;;;;;;;3.40;1.38;;;12.00;69.20;;;;;;5048704;28;20032;-82
2022/12/27 00:12:42;;;;;;;3.92;1.40;;;12.00;69.20;;;;;;5049819;28;20079;-81
2022/12/27 00:15:27;;;;;;;6.10;1.55;;;12.00;69.10;;;;;;5048527;28;20044;-81
2022/12/27 00:18:11;;;;;;;4.18;1.20;;;12.00;69.10;;;;;;5060227;28;20098;-81
2022/12/27 00:21:01;;;;;;;3.58;1.23;;;12.00;69.10;;;;;;5060016;28;20040;-81
2022/12/27 00:23:49;;;;;;;4.35;1.42;;;12.00;69.00;;;;;;5053682;28;20119;-83
2022/12/27 00:26:34;;;;;;;2.88;1.08;;;12.00;69.00;;;;;;5070306;28;20731;-86
2022/12/27 00:29:20;;;;;;;2.80;0.98;;;12.00;69.00;;;;;;5065833;28;20083;-86
2022/12/27 00:32:05;;;;;;;4.47;1.60;;;11.90;68.80;;;;;;5055330;28;20048;-86
2022/12/27 00:34:49;;;;;;;1.98;1.45;;;11.90;68.80;;;;;;5060849;28;20044;-86
2022/12/27 00:37:34;;;;;;;4.05;1.42;;;11.90;68.80;;;;;;5048607;28;20091;-85
2022/12/27 00:40:19;;;;;;;4.30;1.77;;;11.90;68.80;;;;;;5037240;28;20396;-82
2022/12/27 00:43:03;;;;;;;6.43;1.42;;;11.90;68.80;;;;;;5030575;28;20047;-83
2022/12/27 00:45:48;;;;;;;3.50;1.48;;;11.80;68.60;;;;;;5028330;28;20063;-82
2022/12/27 00:48:33;;;;;;;3.17;1.88;;;11.80;68.60;;;;;;5045966;28;20039;-82
2022/12/27 00:51:23;;;;;;;2.80;1.58;;;11.80;68.60;;;;;;5055353;28;20081;-82
2022/12/27 00:54:07;;;;;;;2.85;2.00;;;11.80;68.60;;;;;;5047707;28;20063;-82
2022/12/27 00:56:51;;;;;;;4.10;1.67;;;11.80;68.60;;;;;;5051975;28;20531;-82
2022/12/27 00:59:36;;;;;;;3.63;1.70;;;11.70;68.40;;;;;;5046246;28;20048;-82
2022/12/27 01:02:21;;;;;;;3.45;1.67;;;11.70;68.50;;;;;;5033893;28;20893;-82
2022/12/27 01:05:06;;;;;;;5.20;1.45;;;11.70;68.50;;;;;;5063463;28;20044;-79
2022/12/27 01:07:50;;;;;;;3.58;1.83;;;11.70;68.50;;;;;;5065932;28;20043;-82
2022/12/27 01:10:35;;;;;;;4.38;1.55;;;11.60;68.30;;;;;;5057891;28;20095;-82
2022/12/27 01:13:20;;;;;;;4.00;1.40;;;11.60;68.30;;;;;;5064735;28;20039;-81
2022/12/27 01:16:10;;;;;;;4.38;2.00;;;11.60;68.30;;;;;;5047719;28;20096;-81
2022/12/27 01:18:56;;;;;;;3.22;1.60;;;11.60;68.30;;;;;;5082513;28;20066;-78
2022/12/27 01:21:41;;;;;;;2.75;1.90;;;11.50;68.10;;;;;;5077651;28;20016;-82
2022/12/27 01:24:26;;;;;;;4.05;1.67;;;11.50;68.10;;;;;;5064207;28;20040;-81
2022/12/27 01:27:11;;;;;;;2.40;1.58;;;11.50;68.10;;;;;;5051619;28;20044;-81
2022/12/27 01:29:55;;;;;;;4.18;1.98;;;11.50;68.10;;;;;;5053609;28;20584;-82
2022/12/27 01:32:40;;;;;;;3.70;1.50;;;11.50;68.10;;;;;;5060789;28;20044;-82
2022/12/27 01:35:24;;;;;;;4.63;2.20;;;11.40;67.90;;;;;;5047174;28;20063;-82
2022/12/27 01:38:09;;;;;;;3.15;1.60;;;11.40;67.90;;;;;;5046166;28;20522;-83
2022/12/27 01:40:53;;;;;;;4.90;1.40;;;11.40;67.90;;;;;;5054930;28;20043;-82
2022/12/27 01:43:38;;;;;;;2.85;1.63;;;11.40;67.90;;;;;;5030085;28;20044;-82
2022/12/27 01:46:23;;;;;;;4.95;2.15;;;11.40;67.90;;;;;;5051217;28;20055;-83
2022/12/27 01:49:10;;;;;;;5.00;1.75;;;11.30;67.80;;;;;;5043856;28;20117;-83
2022/12/27 01:51:54;;;;;;;3.22;1.90;;;11.30;68.00;;;;;;5038321;28;20276;-84
2022/12/27 01:54:40;;;;;;;2.80;1.67;;;11.30;67.80;;;;;;5037168;28;20062;-85
2022/12/27 01:57:24;;;;;;;4.20;1.60;;;11.30;67.80;;;;;;5038500;28;20128;-85
2022/12/27 02:00:12;;;;;;;2.92;1.42;;;11.30;67.80;;;;;;5064308;28;20043;-84
2022/12/27 02:02:58;;;;;;;5.82;1.75;;;11.20;67.60;;;;;;5063878;28;20106;-84
2022/12/27 02:05:42;;;;;;;3.38;1.95;;;11.20;67.60;;;;;;5058300;28;20074;-84
2022/12/27 02:08:51;;;;;;;2.50;1.42;;;11.20;67.60;;;;;;5049378;28;20052;-84
2022/12/27 02:11:52;;;;;;;2.83;2.00;;;11.20;67.50;;;;;;5061047;28;20412;-83
2022/12/27 02:14:44;;;;;;;3.53;1.33;;;11.20;67.50;;;;;;5042727;28;20040;-82
2022/12/27 02:17:30;;;;;;;2.55;1.48;;;11.20;67.50;;;;;;5054712;28;20531;-82
2022/12/27 02:20:20;;;;;;;3.47;1.60;;;11.20;67.50;;;;;;5050666;28;20496;-82
2022/12/27 02:27:11;;;;;;;2.78;1.38;;;11.20;67.40;;;;;;5048392;28;20048;-82
2022/12/27 02:30:03;;;;;;;3.25;1.70;;;11.20;67.50;;;;;;5048153;28;20040;-82
2022/12/27 02:33:11;;;;;;;4.15;1.50;;;11.20;67.40;;;;;;5045579;28;20087;-82
2022/12/27 02:36:04;;;;;;;3.33;1.35;;;11.10;67.30;;;;;;5041641;28;20491;-82
2022/12/27 02:38:55;;;;;;;2.22;1.23;;;11.10;67.30;;;;;;5028232;28;20549;-82
2022/12/27 02:54:27;;;;;;;2.92;1.30;;;11.00;67.30;;;;;;5062286;28;20043;-85
2022/12/27 02:57:12;;;;;;;1.80;1.40;;;10.90;67.10;;;;;;5049310;28;20055;-84
2022/12/27 03:03:56;;;;;;;3.22;1.23;;;10.90;67.20;;;;;;5055157;28;20079;-85
2022/12/27 03:06:56;;;;;;;2.50;1.27;;;11.00;67.30;;;;;;5057781;28;20043;-82
2022/12/27 03:16:20;;;;;;;4.88;1.20;;;10.90;67.10;;;;;;5054609;28;20080;-83
2022/12/27 03:25:28;;;;;;;2.20;1.10;;;10.80;66.90;;;;;;5052623;28;20044;-83
2022/12/27 03:34:42;;;;;;;1.85;0.95;;;10.80;67.00;;;;;;5046811;28;20088;-84
2022/12/27 03:44:23;;;;;;;2.03;1.00;;;10.80;67.10;;;;;;5050236;28;20043;-84
2022/12/27 03:47:16;;;;;;;4.97;0.82;;;10.80;67.10;;;;;;5054839;28;20044;-86
2022/12/27 03:50:07;;;;;;;3.70;1.42;;;10.80;67.70;;;;;;5042574;28;20083;-83
2022/12/27 03:53:18;;;;;;;2.05;0.82;;;10.80;67.20;;;;;;5053647;28;20060;-84
2022/12/27 03:56:04;;;;;;;2.10;0.82;;;10.80;67.10;;;;;;5056625;28;20718;-83
2022/12/27 03:58:50;;;;;;;1.90;0.80;;;10.70;67.00;;;;;;5052272;28;20040;-83
2022/12/27 04:01:34;;;;;;;3.28;0.90;;;10.70;67.00;;;;;;5054209;28;20043;-84
2022/12/27 04:04:19;;;;;;;3.72;1.00;;;10.70;66.90;;;;;;5050439;28;20122;-82
2022/12/27 04:07:05;;;;;;;2.28;0.90;;;10.80;67.10;;;;;;5052334;28;20040;-83
2022/12/27 04:37:18;;;;;;;3.57;0.90;;;10.70;67.10;;;;;;5049916;28;20407;-87
2022/12/27 04:55:35;;;;;;;2.95;0.73;;;10.60;67.00;;;;;;5052639;28;20086;-85
2022/12/27 04:58:20;;;;;;;5.50;1.00;;;10.60;67.00;;;;;;5048736;28;20064;-83
2022/12/27 05:04:07;;;;;;;4.40;1.52;;;10.60;67.10;;;;;;5072665;28;20086;-87
2022/12/27 05:06:52;;;;;;;2.80;0.95;;;10.60;67.10;;;;;;5071017;28;20213;-90
2022/12/27 05:15:44;;;;;;;2.45;0.85;;;10.70;67.30;;;;;;5060505;28;20048;-91
2022/12/27 05:18:29;;;;;;;2.08;0.70;;;10.60;67.10;;;;;;5060302;28;20131;-92
2022/12/27 05:21:13;;;;;;;4.03;0.93;;;10.60;67.10;;;;;;5060474;28;20036;-90
2022/12/27 05:27:02;;;;;;;2.75;1.75;;;10.70;67.30;;;;;;5064396;28;20174;-87
2022/12/27 05:29:48;;;;;;;2.88;0.80;;;10.70;67.30;;;;;;5081762;28;20132;-87
2022/12/27 05:32:32;;;;;;;1.40;0.77;;;10.70;67.20;;;;;;5062251;28;20036;-88
2022/12/27 05:35:17;;;;;;;3.08;0.90;;;10.80;67.40;;;;;;5062289;28;20495;-89
2022/12/27 05:38:02;;;;;;;3.70;0.80;;;10.80;67.40;;;;;;5077049;28;20082;-88
2022/12/27 05:40:47;;;;;;;2.85;1.13;;;10.80;67.30;;;;;;5062919;28;20103;-89
2022/12/27 05:43:32;;;;;;;1.67;0.60;;;10.80;67.30;;;;;;5050869;28;20067;-87
2022/12/27 05:46:20;;;;;;;2.30;0.80;;;10.90;67.40;;;;;;5061658;28;20040;-86
2022/12/27 05:49:04;;;;;;;3.42;0.57;;;10.90;67.40;;;;;;5063608;28;20043;-86
2022/12/27 05:51:49;;;;;;;2.75;1.13;;;10.90;67.30;;;;;;5060121;28;20912;-84
2022/12/27 05:54:34;;;;;;;3.42;1.02;;;11.00;67.50;;;;;;5061274;28;20040;-86
2022/12/27 05:57:18;;;;;;;2.53;0.82;;;11.00;67.40;;;;;;5037797;28;20055;-85
2022/12/27 06:00:04;;;;;;;3.25;0.88;;;11.00;67.30;;;;;;5060176;28;20083;-85
2022/12/27 06:02:56;;;;;;;;;;;11.10;67.50;;;;;;5049561;28;20051;-84
2022/12/27 06:05:41;;;;;;;2.35;0.73;;;11.10;67.40;;;;;;5047510;28;19915;-84
2022/12/27 06:08:26;;;;;;;1.25;0.57;;;11.10;67.30;;;;;;5063793;28;20035;-83
2022/12/27 06:11:15;;;;;;;4.43;0.80;;;11.10;67.30;;;;;;5052256;28;20063;-84
2022/12/27 06:13:59;;;;;;;2.22;0.47;;;11.20;67.40;;;;;;5044745;28;20048;-84
2022/12/27 06:16:44;;;;;;;4.70;0.90;;;11.20;67.40;;;;;;5051386;28;20056;-84
2022/12/27 06:19:28;;;;;;;3.17;0.82;;;11.20;67.40;;;;;;5059137;28;20036;-85
2022/12/27 06:22:13;;;;;;;2.88;1.08;;;11.30;67.50;;;;;;5058974;28;20068;-84
2022/12/27 06:24:59;;;;;;;5.03;0.90;;;11.30;67.60;;;;;;5043435;28;20075;-86
2022/12/27 06:27:43;;;;;;;3.20;0.77;;;11.30;67.60;;;;;;5050000;28;20098;-84
2022/12/27 06:30:28;;;;;;;1.85;0.57;;;11.30;67.60;;;;;;5038672;28;20029;-87
2022/12/27 06:33:13;;;;;;;1.45;0.60;;;11.30;67.60;;;;;;5053677;28;20070;-86
2022/12/27 06:36:04;;;;;;;2.65;0.88;;;11.30;67.70;;;;;;5044457;28;20060;-89
2022/12/27 06:38:49;;;;;;;2.33;0.93;;;11.30;67.70;;;;;;5064261;28;20532;-83
2022/12/27 06:41:33;;;;;;;0.95;0.52;;;11.30;67.80;;;;;;5063471;28;20083;-83
2022/12/27 06:44:18;;;;;;;2.60;0.73;;;11.30;67.80;;;;;;5047369;28;20094;-86
2022/12/27 06:47:03;;;;;;;3.28;1.10;;;11.30;67.80;;;;;;5043424;28;20048;-88
2022/12/27 06:49:47;;;;;;;3.55;0.90;;;11.40;68.00;;;;;;5062407;28;20044;-86
2022/12/27 06:52:32;;;;;;;1.63;0.68;;;11.40;68.00;;;;;;5064099;28;20048;-87
2022/12/27 06:55:17;;;;;;;2.13;0.95;;;11.40;68.00;;;;;;5043363;28;20565;-87
2022/12/27 06:58:01;;;;;;;2.28;0.65;;;11.40;68.00;;;;;;5045984;28;20108;-88
2022/12/27 07:00:46;;;;;;;2.28;0.65;;;11.40;68.00;;;;;;5067053;28;20064;-86
2022/12/27 07:03:31;;;;;;;3.97;0.68;;;11.50;68.20;;;;;;5050458;28;20044;-84
2022/12/27 07:06:15;;;;;;;0.98;0.60;;;11.50;68.20;;;;;;5059606;28;20417;-84
2022/12/27 07:09:00;;;;;;;1.58;1.10;;;11.50;68.20;;;;;;5055459;28;20090;-82
2022/12/27 07:11:44;;;;;;;3.63;1.00;;;11.50;68.20;;;;;;5058745;28;20040;-84
2022/12/27 07:14:29;;;;;;;3.30;1.35;;;11.50;68.20;;;;;;5055603;28;20278;-82
2022/12/27 07:17:14;;;;;;;2.60;1.05;;;11.50;67.80;;;;;;5054448;28;20109;-82
2022/12/27 07:19:59;;;;;;;3.42;1.23;;;11.40;67.40;;;;;;5057398;28;20093;-81
2022/12/27 07:22:43;;;;;;;2.53;0.90;;;11.30;67.50;;;;;;5042657;28;20391;-87
2022/12/27 07:25:28;;;;;;;3.88;1.10;;;11.30;67.80;;;;;;5065400;28;20054;-82
2022/12/27 07:28:13;;;;;;;5.30;1.80;;;11.20;67.30;;;;;;5055599;28;20055;-81
2022/12/27 07:30:58;;;;;;;4.10;2.05;;;11.10;66.80;;;;;;5043475;28;20031;-79
2022/12/27 07:33:42;;;;;;;3.75;0.93;;;11.00;67.00;;;;;;5058657;28;20044;-90
2022/12/27 07:36:32;;;;;;;4.60;1.15;;;11.00;67.60;;;;;;5046882;28;20051;-86
2022/12/27 07:39:16;;;;;;;3.47;1.17;;;11.10;67.80;;;;;;5033896;28;20064;-81
2022/12/27 07:42:01;;;;;;;2.80;1.48;;;11.20;67.80;;;;;;5037752;28;20130;-81
2022/12/27 07:44:53;;;;;;;5.95;1.40;;;11.10;67.40;;;;;;5048990;28;20108;-83
2022/12/27 07:47:38;;;;;;;3.28;0.70;;;11.10;67.40;;;;;;5050414;28;20147;-81
2022/12/27 07:50:22;;;;;;;5.18;1.33;;;11.00;67.20;;;;;;5046967;28;20076;-81
2022/12/27 07:53:07;;;;;;;3.55;1.02;;;10.90;67.10;;;;;;5028145;28;20412;-80
2022/12/27 07:55:52;;;;;;;3.00;1.02;;;10.80;67.00;;;;;;5046349;28;20104;-79
2022/12/27 07:58:41;;;;;;;5.93;1.70;;;10.80;67.10;;;;;;5038230;28;20040;-82
2022/12/27 08:01:28;;;;;;;6.88;1.25;;;10.60;66.80;;;;;;5043198;28;20035;-82
2022/12/27 08:04:14;;;;;;;4.50;1.38;;;10.60;67.00;;;;;;5053322;28;20071;-83
2022/12/27 08:07:06;;;;;;;5.28;1.38;;;10.50;67.50;;;;;;5062668;28;20115;-82
2022/12/27 08:09:52;;;;;;;5.35;1.73;;;10.40;66.90;;;;;;5053637;28;20047;-84
2022/12/27 08:12:37;;;;;;;5.65;0.85;;;10.30;66.90;;;;;;5049626;28;20071;-85
2022/12/27 08:15:23;;;;;;;3.70;1.10;;;10.20;66.80;;;;;;5039533;28;20059;-87
2022/12/27 08:18:08;;;;;;;3.35;0.75;;;10.10;66.70;;;;;;5055885;28;20129;-85
2022/12/27 08:20:54;;;;;;;2.90;1.02;;;10.10;66.90;;;;;;5055092;28;20395;-86
2022/12/27 08:23:39;;;;;;;4.10;1.02;;;10.00;66.90;;;;;;5065885;28;20050;-81
2022/12/27 08:26:23;;;;;;;3.75;1.23;;;9.90;66.80;;;;;;5059783;28;20105;-81
2022/12/27 08:29:08;;;;;;;4.32;1.08;;;9.90;66.90;;;;;;5073345;28;20076;-84
2022/12/27 08:31:53;;;;;;;2.97;0.90;;;9.80;66.80;;;;;;5079724;28;20104;-84
2022/12/27 08:34:37;;;;;;;4.20;0.75;;;9.80;66.90;;;;;;5075581;28;20036;-84
2022/12/27 08:37:22;;;;;;;3.83;0.80;;;9.80;67.00;;;;;;5085775;28;20059;-84
2022/12/27 08:40:07;;;;;;;3.85;0.77;;;9.80;67.10;;;;;;5039905;28;20554;-81
2022/12/27 08:42:52;;;;;;;2.45;1.00;;;9.70;66.90;;;;;;5043433;28;20085;-82
2022/12/27 08:45:37;;;;;;;4.38;1.40;;;9.70;66.90;;;;;;5044316;28;20036;-80
2022/12/27 08:48:23;;;;;;;4.03;0.85;;;9.70;66.90;;;;;;5047893;28;20047;-77
2022/12/27 08:51:08;;;;;;;6.28;1.20;;;9.70;66.90;;;;;;5037310;28;20047;-78
2022/12/27 08:53:53;;;;;;;1.85;0.73;;;9.70;66.90;;;;;;5032048;28;20179;-77
2022/12/27 08:56:37;;;;;;;1.95;0.80;;;9.70;66.90;;;;;;5040420;28;20531;-77
2022/12/27 08:59:25;;;;;;;3.78;1.02;;;9.70;66.90;;;;;;5048607;28;20207;-89
2022/12/27 09:02:13;;;;;;;4.07;0.80;;;9.70;66.90;;;;;;5043533;28;20099;-83
2022/12/27 09:04:58;;;;;;;2.55;1.00;;;9.70;66.90;;;;;;5047484;28;20039;-84
2022/12/27 09:07:43;;;;;;;4.32;0.95;;;9.70;66.90;;;;;;5046622;28;20170;-90
2022/12/27 09:10:30;;;;;;;5.00;0.95;;;9.70;66.90;;;;;;5039568;28;20052;-92
2022/12/27 09:13:15;;;;;;;3.50;1.08;;;9.70;67.00;;;;;;5059305;28;20312;-90
2022/12/27 09:16:11;;;;;;;3.65;1.25;;;9.70;67.00;;;;;;5043530;28;20047;-89
2022/12/27 09:18:59;;;;;;;3.97;1.67;;;9.70;67.00;;;;;;5049215;28;20059;-85
2022/12/27 09:21:43;;;;;;;4.15;1.10;;;9.80;67.20;;;;;;5051157;28;20075;-86
2022/12/27 09:24:28;;;;;;;4.63;1.13;;;9.80;67.10;;;;;;5040624;28;20475;-90
2022/12/27 09:27:14;;;;;;;4.40;1.20;;;9.80;67.10;;;;;;5030849;28;20128;-88
2022/12/27 09:29:58;;;;;;;3.50;0.70;;;9.90;67.20;;;;;;5045321;28;20094;-82
2022/12/27 09:32:42;;;;;;;4.55;1.17;;;9.90;67.20;;;;;;5038180;28;20111;-86
2022/12/27 09:35:27;;;;;;;3.90;0.85;;;10.00;67.30;;;;;;5032667;28;20047;-86
2022/12/27 09:38:12;;;;;;;3.40;1.10;;;10.00;67.10;;;;;;5032347;28;20154;-84
2022/12/27 09:41:01;;;;;;;4.90;1.35;;;10.10;67.20;;;;;;5050084;28;20040;-82
2022/12/27 09:44:03;;;;;;;2.25;0.80;;;10.10;67.10;;;;;;5036681;28;20044;-87
2022/12/27 09:46:58;;;;;;;4.75;1.00;;;10.20;67.20;;;;;;5033995;28;20439;-84
2022/12/27 09:49:49;;;;;;;5.82;1.77;;;10.20;67.20;;;;;;5050541;28;20047;-84
2022/12/27 09:53:02;;;;;;;4.65;1.05;;;10.30;67.30;;;;;;5055546;28;20055;-88
2022/12/27 09:55:54;;;;;;;1.27;0.70;;;10.40;67.40;;;;;;5015647;28;20044;-90
2022/12/27 09:58:43;;;;;;;4.97;1.83;;;10.40;67.40;;;;;;5039987;28;20083;-83
2022/12/27 10:01:33;;;;;;;3.70;1.38;;;10.50;67.50;;;;;;5062573;28;20144;-86
2022/12/27 10:04:18;;;;;;;3.40;1.17;;;10.50;67.40;;;;;;5033908;28;20052;-83
2022/12/27 10:07:31;;;;;;;3.38;1.20;;;10.50;67.30;;;;;;5046867;28;20114;-83
2022/12/27 10:10:16;;;;;;;4.15;1.02;;;10.60;68.00;;;;;;5060737;28;20549;-80
2022/12/27 10:13:21;;;;;;;4.60;1.20;;;10.60;67.40;;;;;;5051186;28;20039;-79
2022/12/27 10:16:12;;;;;;;4.75;1.13;;;10.70;67.50;;;;;;5050340;28;20175;-82
2022/12/27 10:19:20;;;;;;;4.35;1.27;;;10.70;67.50;;;;;;5060257;28;20042;-79
2022/12/27 10:22:32;;;;;;;4.05;1.30;;;10.70;67.50;;;;;;5051203;28;20075;-81
2022/12/27 10:25:20;;;;;;;3.50;0.90;;;10.80;67.70;;;;;;5045165;28;20048;-82
2022/12/27 10:28:28;;;;;;;3.80;1.48;;;10.80;67.70;;;;;;5034739;28;20115;-81
2022/12/27 10:31:16;;;;;;;3.47;1.52;;;10.90;67.80;;;;;;5050545;28;20075;-80
2022/12/27 10:34:01;;;;;;;3.90;1.15;;;10.90;67.70;;;;;;5054287;28;20060;-81
2022/12/27 10:36:45;;;;;;;5.22;1.25;;;11.00;67.80;;;;;;5032002;28;20113;-82
2022/12/27 10:39:35;;;;;;;7.13;1.10;;;11.00;67.80;;;;;;5053469;28;20043;-81
2022/12/27 10:42:37;;;;;;;5.68;2.28;;;11.10;67.90;;;;;;5036510;28;20040;-82
2022/12/27 10:45:35;;;;;;;6.00;1.58;;;11.20;67.90;;;;;;5040745;28;20051;-81
2022/12/27 10:48:25;;;;;;;6.13;1.65;;;11.20;67.80;;;;;;5062718;28;20059;-80
2022/12/27 10:51:10;;;;;;;6.55;1.20;;;11.30;67.90;;;;;;5050116;28;20283;-84
2022/12/27 10:54:10;;;;;;;5.43;1.50;;;11.30;67.90;;;;;;5048306;28;20103;-84
2022/12/27 10:56:56;;;;;;;8.35;1.40;;;11.40;68.20;;;;;;5037812;28;20136;-82
2022/12/27 10:59:40;;;;;;;4.32;1.13;;;11.60;68.70;;;;;;5034972;28;20052;-82
2022/12/27 11:02:25;;;;;;;5.45;1.95;;;11.60;68.60;;;;;;5045034;28;20086;-82
2022/12/27 11:05:23;;;;;;;6.68;1.70;;;11.70;69.00;;;;;;5050204;28;20036;-82
2022/12/27 11:08:23;;;;;;;6.78;1.63;;;11.80;69.20;;;;;;5040860;28;20523;-83
2022/12/27 11:11:24;;;;;;;4.95;1.25;;;11.90;69.40;;;;;;5046642;28;20102;-83
2022/12/27 11:14:09;;;;;;;9.70;2.92;;;11.90;69.30;;;;;;5052091;28;20040;-81
2022/12/27 11:16:54;;;;;;;5.45;1.60;;;12.00;69.50;;;;;;5047768;28;20052;-80
2022/12/27 11:19:45;;;;;;;5.13;1.90;;;12.10;69.80;;;;;;5045076;28;20067;-79
2022/12/27 11:22:29;;;;;;;5.47;1.75;;;12.10;70.00;;;;;;5047075;28;20043;-82
2022/12/27 11:25:15;;;;;;;7.53;1.52;;;12.20;70.20;;;;;;5061553;28;20075;-83
2022/12/27 11:28:03;;;;;;;6.97;1.70;;;12.30;70.50;;;;;;5065046;28;20051;-76
2022/12/27 11:31:02;;;;;;;5.47;2.22;;;12.40;70.60;;;;;;5037354;28;20043;-75
2022/12/27 11:33:53;;;;;;;6.35;1.90;;;12.50;70.90;;;;;;5048150;28;20111;-74
2022/12/27 11:36:40;;;;;;;10.80;2.72;;;12.60;71.50;;;;;;5040342;28;20503;-78
2022/12/27 11:39:45;;;;;;;5.93;2.38;;;12.70;71.20;;;;;;5042515;28;20109;-78
2022/12/27 11:42:31;;;;;;;7.10;3.65;;;12.80;71.40;;;;;;5037648;28;20067;-78
2022/12/27 11:45:24;;;;;;;6.40;4.50;;;12.90;71.40;;;;;;5041739;28;20072;-77
2022/12/27 11:48:39;;;;;;;10.68;5.63;;;13.00;71.70;;;;;;5039897;28;20051;-76
2022/12/27 11:51:33;;;;;;;10.05;5.88;;;13.10;72.10;;;;;;5039580;28;20056;-76
2022/12/27 11:54:28;;;;;;;8.48;5.72;;;13.20;72.10;;;;;;5039598;28;20207;-79
2022/12/27 11:57:33;;;;;;;13.15;7.53;;;13.30;72.30;;;;;;5037431;28;20132;-79
2022/12/27 12:00:23;;;;;;;32.55;10.88;;;13.40;72.70;;;;;;5062467;28;20525;-78
2022/12/27 12:03:46;;;;;;;22.35;11.02;;;13.40;73.00;;;;;;5036899;28;20565;-82
2022/12/27 12:07:07;;;;;;;22.40;10.88;;;13.50;73.90;;;;;;5034672;28;20055;-80
2022/12/27 12:10:18;;;;;;;18.20;9.00;;;13.70;74.40;;;;;;5045086;28;20118;-80
2022/12/27 12:13:06;;;;;;;17.60;8.38;;;13.80;74.60;;;;;;5024306;28;20051;-81
2022/12/27 12:16:24;;;;;;;12.15;5.63;;;13.80;74.40;;;;;;5035363;28;20466;-79
2022/12/27 12:19:23;;;;;;;11.45;5.32;;;13.80;74.60;;;;;;5027254;28;20125;-82
2022/12/27 12:22:17;;;;;;;13.55;6.57;;;13.70;74.40;;;;;;5027956;28;20040;-81
2022/12/27 12:25:07;;;;;;;;;;;13.70;74.60;;;;;;5058958;28;20129;-81
2022/12/27 12:28:16;;;;;;;9.95;5.10;;;13.80;75.00;;;;;;5066785;28;19919;-84
2022/12/27 12:31:36;;;;;;;12.63;5.32;;;13.90;74.90;;;;;;5050459;28;20043;-80
2022/12/27 12:34:41;;;;;;;10.60;4.00;;;14.10;75.00;;;;;;5053534;28;20429;-85
2022/12/27 12:38:03;;;;;;;11.63;4.97;;;14.40;74.90;;;;;;5048016;28;20199;-81
2022/12/27 12:41:09;;;;;;;9.57;2.70;;;14.60;74.80;;;;;;5026179;28;20048;-82
2022/12/27 12:44:05;;;;;;;9.90;2.67;;;14.80;74.20;;;;;;5020006;28;20281;-80
2022/12/27 12:46:58;;;;;;;11.18;3.20;;;14.90;73.80;;;;;;5043916;28;20115;-80
2022/12/27 12:50:11;;;;;;;11.45;3.47;;;14.80;73.50;;;;;;5056896;28;20570;-77
2022/12/27 12:53:24;;;;;;;10.55;3.08;;;14.90;74.30;;;;;;5047213;28;20043;-78
2022/12/27 12:56:47;;;;;;;8.38;2.17;;;15.00;74.30;;;;;;5034632;28;20336;-81
2022/12/27 12:59:33;;;;;;;11.02;2.70;;;15.10;74.20;;;;;;5055163;28;20035;-81
2022/12/27 13:02:48;;;;;;;7.22;2.72;;;15.00;73.90;;;;;;5044252;28;20032;-79
2022/12/27 13:06:02;;;;;;;7.57;2.58;;;15.00;73.80;;;;;;5050486;28;20071;-78
2022/12/27 13:08:50;;;;;;;5.65;2.75;;;14.90;73.80;;;;;;5045278;28;20044;-79
2022/12/27 13:11:58;;;;;;;6.25;2.10;;;14.80;73.70;;;;;;5038363;28;20083;-80
2022/12/27 13:15:09;;;;;;;6.57;2.50;;;14.70;73.60;;;;;;5055767;28;20038;-80
2022/12/27 13:18:16;;;;;;;9.43;2.40;;;14.50;73.30;;;;;;5056071;28;20101;-78
2022/12/27 13:21:21;;;;;;;4.43;1.70;;;14.50;73.50;;;;;;5046646;28;20036;-78
2022/12/27 13:24:19;;;;;;;7.28;2.90;;;14.40;73.40;;;;;;5062726;28;20069;-76
2022/12/27 13:27:19;;;;;;;7.95;2.80;;;14.30;73.30;;;;;;5052165;28;20106;-75
2022/12/27 13:30:15;;;;;;;4.88;1.75;;;14.20;73.10;;;;;;5065207;28;20093;-78
2022/12/27 13:33:05;;;;;;;7.00;1.92;;;14.10;73.00;;;;;;5057009;28;20079;-78
2022/12/27 13:36:11;;;;;;;5.50;1.83;;;14.00;72.90;;;;;;5045526;28;20059;-78
2022/12/27 13:39:06;;;;;;;5.50;2.45;;;13.90;72.80;;;;;;5030481;28;20083;-77
2022/12/27 13:41:59;;;;;;;5.90;1.83;;;13.90;72.80;;;;;;5025215;28;20493;-78
2022/12/27 13:45:02;;;;;;;;;;;13.80;72.70;;;;;;5039701;28;20475;-75
2022/12/27 13:48:19;;;;;;;7.05;2.28;;;13.70;72.70;;;;;;5028311;28;19923;-77
2022/12/27 13:51:18;;;;;;;5.82;1.35;;;13.60;72.60;;;;;;5042258;28;20783;-77
2022/12/27 13:54:16;;;;;;;3.10;1.40;;;13.50;72.50;;;;;;5013180;28;20051;-77
2022/12/27 13:57:48;;;;;;;5.75;1.65;;;13.40;72.30;;;;;;5038471;28;20096;-78
2022/12/27 14:00:44;;;;;;;6.18;1.30;;;13.30;72.20;;;;;;5010251;28;20111;-76
2022/12/27 14:03:53;;;;;;;6.60;1.45;;;13.20;72.20;;;;;;5030128;28;20426;-79
2022/12/27 14:07:09;;;;;;;5.05;1.50;;;13.20;72.20;;;;;;5046929;28;20375;-80
2022/12/27 14:10:30;;;;;;;6.82;2.42;;;13.10;72.10;;;;;;5030414;28;20036;-86
2022/12/27 14:13:31;;;;;;;5.80;1.80;;;13.00;72.00;;;;;;5030054;28;20039;-89
2022/12/27 14:16:47;;;;;;;5.15;1.60;;;13.00;72.10;;;;;;5020747;28;20127;-90
2022/12/27 14:19:53;;;;;;;5.75;1.95;;;12.90;72.00;;;;;;5050895;28;20167;-85
2022/12/27 14:23:05;;;;;;;4.63;2.03;;;12.90;72.00;;;;;;5042216;28;20044;-84
2022/12/27 14:26:02;;;;;;;5.95;1.92;;;12.80;71.90;;;;;;5037670;28;20043;-89
2022/12/27 14:29:08;;;;;;;4.90;1.60;;;12.80;72.00;;;;;;5034129;28;20049;-89
2022/12/27 14:32:21;;;;;;;7.32;1.95;;;12.80;71.90;;;;;;5042069;28;20052;-96
2022/12/27 14:35:43;;;;;;;8.07;2.45;;;12.70;71.80;;;;;;5054801;28;20016;-93
2022/12/27 14:38:44;;;;;;;4.70;2.03;;;12.80;72.00;;;;;;5043776;28;20052;-94
2022/12/27 14:42:07;;;;;;;4.97;1.98;;;12.70;71.80;;;;;;5059046;28;20091;-93
2022/12/27 14:44:54;;;;;;;7.50;3.42;;;12.70;71.80;;;;;;5039766;28;20599;-85
2022/12/27 14:48:17;;;;;;;5.47;1.85;;;12.70;71.90;;;;;;5026597;28;20405;-86
2022/12/27 14:51:40;;;;;;;7.30;3.13;;;12.60;71.70;;;;;;5042697;28;20196;-88
2022/12/27 14:54:56;;;;;;;4.60;1.98;;;12.60;71.80;;;;;;5041919;28;20111;-89
2022/12/27 14:57:49;;;;;;;4.38;1.80;;;12.50;71.70;;;;;;5038519;28;20074;-85
2022/12/27 15:01:10;;;;;;;5.28;1.88;;;12.50;71.80;;;;;;5055773;28;20053;-83
2022/12/27 15:04:34;;;;;;;4.70;1.95;;;12.40;71.70;;;;;;5066817;28;20634;-84
2022/12/27 15:07:40;;;;;;;8.43;1.83;;;12.50;72.10;;;;;;5060800;28;20035;-82
2022/12/27 15:10:44;;;;;;;5.20;1.52;;;12.40;71.90;;;;;;5066754;28;20051;-85
2022/12/27 15:13:57;;;;;;;5.40;1.90;;;12.40;72.00;;;;;;5054011;28;20094;-86
2022/12/27 15:17:20;;;;;;;3.90;1.45;;;12.40;72.10;;;;;;5035702;28;20071;-83
2022/12/27 15:20:20;;;;;;;4.80;1.55;;;12.30;71.90;;;;;;5041535;28;20044;-85
2022/12/27 15:23:24;;;;;;;5.65;1.95;;;12.30;72.00;;;;;;5044550;28;20059;-88
2022/12/27 15:26:16;;;;;;;6.63;1.70;;;12.30;72.10;;;;;;5044867;28;20396;-80
2022/12/27 15:29:07;;;;;;;8.63;1.77;;;12.20;72.00;;;;;;5043022;28;20132;-81
2022/12/27 15:32:29;;;;;;;5.43;2.42;;;12.20;72.10;;;;;;5046070;28;20040;-82
2022/12/27 15:35:33;;;;;;;3.63;1.60;;;12.20;72.10;;;;;;5045782;28;20043;-86
2022/12/27 15:38:41;;;;;;;5.90;2.17;;;12.20;72.20;;;;;;5028706;28;20111;-82
2022/12/27 15:41:44;;;;;;;4.68;2.22;;;12.10;72.00;;;;;;5042085;28;20044;-81
2022/12/27 15:45:05;;;;;;;5.65;1.70;;;12.10;72.20;;;;;;5046662;28;20047;-82
2022/12/27 15:48:32;;;;;;;7.90;2.67;;;12.00;72.00;;;;;;5044167;28;20401;-82
2022/12/27 15:51:16;;;;;;;6.82;2.15;;;12.00;72.10;;;;;;5028134;28;20056;-80
2022/12/27 15:54:07;;;;;;;5.78;1.75;;;12.00;72.10;;;;;;5057243;28;20062;-80
2022/12/27 15:57:10;;;;;;;4.88;1.77;;;12.00;72.20;;;;;;5041836;28;20073;-79
2022/12/27 16:00:16;;;;;;;4.57;2.42;;;11.90;72.10;;;;;;5026760;28;20055;-81
2022/12/27 16:03:22;;;;;;;6.50;2.13;;;11.90;72.20;;;;;;5054665;28;20110;-83
2022/12/27 16:06:28;;;;;;;6.25;1.98;;;11.90;72.30;;;;;;5054573;28;20427;-82
2022/12/27 16:09:34;;;;;;;8.32;2.03;;;11.80;72.20;;;;;;5052054;28;20438;-84
2022/12/27 16:12:38;;;;;;;6.63;2.70;;;11.80;72.30;;;;;;5065019;28;20097;-84
2022/12/27 16:15:46;;;;;;;7.47;1.88;;;11.80;72.70;;;;;;5047583;28;20043;-90
2022/12/27 16:19:01;;;;;;;6.20;1.90;;;11.90;73.50;;;;;;5047385;28;20059;-78
2022/12/27 16:21:46;;;;;;;6.00;2.08;;;12.20;74.10;;;;;;5061585;28;20091;-83
2022/12/27 16:24:31;;;;;;;5.72;1.60;;;12.40;73.90;;;;;;5050532;28;20051;-80
2022/12/27 16:27:30;;;;;;;3.63;1.92;;;12.60;74.00;;;;;;5056152;28;20163;-77
2022/12/27 16:30:51;;;;;;;4.85;1.73;;;12.70;74.10;;;;;;5065491;28;20087;-83
2022/12/27 16:33:41;;;;;;;15.60;3.67;;;12.90;74.40;;;;;;5067096;28;20036;-83
2022/12/27 16:36:32;;;;;;;5.03;2.47;;;13.00;74.10;;;;;;5040951;28;20107;-88
2022/12/27 16:39:32;;;;;;;4.78;1.75;;;13.10;74.10;;;;;;5038914;28;20047;-91
2022/12/27 16:42:25;;;;;;;5.78;2.40;;;13.10;74.10;;;;;;5024401;28;20601;-81
2022/12/27 16:45:42;;;;;;;7.13;2.30;;;13.10;74.00;;;;;;5024430;28;20041;-83